createdAt,value
2023-04-07T00:01:19.244Z,17.27
2023-04-07T00:03:49.426Z,11.77
2023-04-07T00:06:18.377Z,11.85
2023-04-07T00:08:47.157Z,14.82
2023-04-07T00:11:17.468Z,13.20
2023-04-07T00:13:46.613Z,12.48
2023-04-07T00:16:15.750Z,14.10
2023-04-07T00:18:44.949Z,13.23
2023-04-07T00:21:15.265Z,13.45
2023-04-07T00:23:43.981Z,12.43
2023-04-07T00:26:12.801Z,9.98
2023-04-07T00:28:44.257Z,15.35
2023-04-07T00:31:13.442Z,16.20
2023-04-07T00:33:42.385Z,9.48
2023-04-07T00:36:11.875Z,13.32
2023-04-07T00:38:42.674Z,13.25
2023-04-07T00:41:11.671Z,14.20
2023-04-07T00:43:40.588Z,11.73
2023-04-07T00:46:09.607Z,12.35
2023-04-07T00:48:38.773Z,13.85
2023-04-07T00:51:08.591Z,12.93
2023-04-07T00:53:38.870Z,15.10
2023-04-07T00:56:09.746Z,13.60
2023-04-07T00:58:38.736Z,13.98
2023-04-07T01:01:11.134Z,13.05
2023-04-07T01:03:50.830Z,16.40
2023-04-07T01:06:22.037Z,14.77
2023-04-07T01:08:58.374Z,12.38
2023-04-07T01:11:33.989Z,17.15
2023-04-07T01:14:03.162Z,13.95
2023-04-07T01:17:03.052Z,13.25
2023-04-07T01:19:37.849Z,14.48
2023-04-07T01:22:14.486Z,19.15
2023-04-07T01:25:13.746Z,11.65
2023-04-07T01:27:56.454Z,15.57
2023-04-07T01:30:30.244Z,14.73
2023-04-07T01:33:01.873Z,15.93
2023-04-07T01:35:34.399Z,14.90
2023-04-07T01:38:04.803Z,17.75
2023-04-07T01:40:36.180Z,14.68
2023-04-07T01:43:05.937Z,17.75
2023-04-07T01:45:37.606Z,13.52
2023-04-07T01:48:09.701Z,12.60
2023-04-07T01:50:40.122Z,13.88
2023-04-07T01:53:10.148Z,18.92
2023-04-07T01:55:39.669Z,15.82
2023-04-07T01:58:13.014Z,17.05
2023-04-07T02:00:46.784Z,17.67
2023-04-07T02:03:22.364Z,16.13
2023-04-07T02:05:54.817Z,16.42
2023-04-07T02:08:31.186Z,17.48
2023-04-07T02:11:04.287Z,14.35
2023-04-07T02:13:38.635Z,16.15
2023-04-07T02:16:13.066Z,12.82
2023-04-07T02:18:44.898Z,16.77
2023-04-07T02:21:16.064Z,17.90
2023-04-07T02:23:48.860Z,16.42
2023-04-07T02:26:18.357Z,17.73
2023-04-07T02:28:47.394Z,13.55
2023-04-07T02:31:18.170Z,15.00
2023-04-07T02:33:47.393Z,15.40
2023-04-07T02:36:16.373Z,11.60
2023-04-07T02:38:45.348Z,12.50
2023-04-07T02:41:14.213Z,15.90
2023-04-07T02:43:43.323Z,12.85
2023-04-07T02:46:12.864Z,15.90
2023-04-07T02:48:43.980Z,13.38
2023-04-07T02:51:12.967Z,12.32
2023-04-07T02:53:41.857Z,9.93
2023-04-07T02:56:11.231Z,14.70
2023-04-07T02:58:40.477Z,12.27
2023-04-07T03:01:09.661Z,13.80
2023-04-07T03:03:39.481Z,12.90
2023-04-07T03:06:20.773Z,15.25
2023-04-07T03:09:01.561Z,16.83
2023-04-07T03:11:30.912Z,21.52
2023-04-07T03:14:02.023Z,14.80
2023-04-07T03:16:32.952Z,19.30
2023-04-07T03:19:10.009Z,29.05
2023-04-07T03:21:45.234Z,29.52
2023-04-07T03:24:14.230Z,31.02
2023-04-07T03:26:43.451Z,33.30
2023-04-07T03:29:31.467Z,29.55
2023-04-07T03:32:00.759Z,35.85
2023-04-07T03:34:29.807Z,30.13
2023-04-07T03:37:02.201Z,32.15
2023-04-07T03:39:37.382Z,33.40
2023-04-07T03:42:13.492Z,25.35
2023-04-07T03:44:43.520Z,26.55
2023-04-07T03:47:12.684Z,30.75
2023-04-07T03:49:42.262Z,23.35
2023-04-07T03:52:12.738Z,36.08
2023-04-07T03:54:43.034Z,29.98
2023-04-07T03:57:12.393Z,26.63
2023-04-07T03:59:47.636Z,25.05
2023-04-07T04:02:16.578Z,26.10
2023-04-07T04:04:46.206Z,26.08
2023-04-07T04:07:17.790Z,22.15
2023-04-07T04:09:51.214Z,23.17
2023-04-07T04:12:21.200Z,22.33
2023-04-07T04:15:06.915Z,22.20
2023-04-07T04:17:36.534Z,29.25
2023-04-07T04:20:08.456Z,22.65
2023-04-07T04:22:46.862Z,26.35
2023-04-07T04:25:17.455Z,27.90
2023-04-07T04:27:50.672Z,24.33
2023-04-07T04:30:23.389Z,27.58
2023-04-07T04:32:56.573Z,26.58
2023-04-07T04:35:58.089Z,26.10
2023-04-07T04:38:29.991Z,27.77
2023-04-07T04:41:07.130Z,28.95
2023-04-07T04:43:36.587Z,28.67
2023-04-07T04:46:07.128Z,34.15
2023-04-07T04:48:41.170Z,28.23
2023-04-07T04:51:10.098Z,29.38
2023-04-07T04:53:42.204Z,27.42
2023-04-07T04:56:11.304Z,31.30
2023-04-07T04:58:47.110Z,29.60
2023-04-07T05:01:34.515Z,26.45
2023-04-07T05:04:09.734Z,28.75
2023-04-07T05:06:41.358Z,27.73
2023-04-07T05:09:14.786Z,28.02
2023-04-07T05:11:47.140Z,30.45
2023-04-07T05:14:16.764Z,26.33
2023-04-07T05:16:52.951Z,24.05
2023-04-07T05:19:24.908Z,31.85
2023-04-07T05:21:57.110Z,25.67
2023-04-07T05:24:30.126Z,26.88
2023-04-07T05:27:02.444Z,29.33
2023-04-07T05:29:32.964Z,25.92
2023-04-07T05:32:02.600Z,27.50
2023-04-07T05:34:33.185Z,31.30
2023-04-07T05:37:02.174Z,23.95
2023-04-07T05:39:32.522Z,25.77
2023-04-07T05:42:03.085Z,28.45
2023-04-07T05:44:32.175Z,29.65
2023-04-07T05:47:01.821Z,23.80
2023-04-07T05:49:32.003Z,31.38
2023-04-07T05:52:06.033Z,29.20
2023-04-07T05:54:41.589Z,23.48
2023-04-07T05:57:12.868Z,28.77
2023-04-07T05:59:46.661Z,26.08
2023-04-07T06:02:15.917Z,23.27
2023-04-07T06:04:47.804Z,24.33
2023-04-07T06:07:19.601Z,28.75
2023-04-07T06:09:50.039Z,25.23
2023-04-07T06:12:18.917Z,28.52
2023-04-07T06:14:52.664Z,23.25
2023-04-07T06:17:21.789Z,25.27
2023-04-07T06:19:50.744Z,25.00
2023-04-07T06:22:19.787Z,27.90
2023-04-07T06:24:50.298Z,25.27
2023-04-07T06:27:19.230Z,26.48
2023-04-07T06:29:50.004Z,20.33
2023-04-07T06:32:19.160Z,23.00
2023-04-07T06:34:48.260Z,24.92
2023-04-07T06:37:17.261Z,25.75
2023-04-07T06:39:46.550Z,23.40
2023-04-07T06:42:16.853Z,23.52
2023-04-07T06:44:54.487Z,18.63
2023-04-07T06:47:24.239Z,22.90
2023-04-07T06:49:53.160Z,25.75
2023-04-07T06:52:21.973Z,28.02
2023-04-07T06:54:50.861Z,19.55
2023-04-07T06:57:21.055Z,19.20
2023-04-07T06:59:50.016Z,14.50
2023-04-07T07:02:19.044Z,19.92
2023-04-07T07:04:48.282Z,18.02
2023-04-07T07:07:17.268Z,17.48
2023-04-07T07:09:46.158Z,19.15
2023-04-07T07:12:17.309Z,16.23
2023-04-07T07:14:47.618Z,17.25
2023-04-07T07:17:16.663Z,15.07
2023-04-07T07:19:45.602Z,17.30
2023-04-07T07:22:14.379Z,17.17
2023-04-07T07:24:43.270Z,17.10
2023-04-07T07:27:16.528Z,17.60
2023-04-07T07:29:47.090Z,88.72
2023-04-07T07:32:16.041Z,162.07
2023-04-07T07:34:45.064Z,66.45
2023-04-07T07:37:13.803Z,50.72
2023-04-07T07:39:42.609Z,11.85
2023-04-07T07:42:11.646Z,14.07
2023-04-07T07:44:40.508Z,13.13
2023-04-07T07:47:10.914Z,10.43
2023-04-07T07:49:39.846Z,9.60
2023-04-07T07:52:10.225Z,10.85
2023-04-07T07:54:39.535Z,10.68
2023-04-07T07:57:08.621Z,11.30
2023-04-07T07:59:37.366Z,11.75
2023-04-07T08:02:06.420Z,13.82
2023-04-07T08:04:37.433Z,15.27
2023-04-07T08:07:06.528Z,7.15
2023-04-07T08:09:35.298Z,9.35
2023-04-07T08:12:04.240Z,10.95
2023-04-07T08:14:33.130Z,10.45
2023-04-07T08:17:01.993Z,8.27
2023-04-07T08:19:30.988Z,10.95
2023-04-07T08:22:01.223Z,6.90
2023-04-07T08:24:30.330Z,11.80
2023-04-07T08:26:59.285Z,6.30
2023-04-07T08:29:28.766Z,12.63
2023-04-07T08:31:58.543Z,8.68
2023-04-07T08:34:27.386Z,6.40
2023-04-07T08:36:56.222Z,7.50
2023-04-07T08:39:26.733Z,7.25
2023-04-07T08:41:58.245Z,6.60
2023-04-07T08:44:29.297Z,6.82
2023-04-07T08:47:00.823Z,6.43
2023-04-07T08:49:32.768Z,6.28
2023-04-07T08:52:05.088Z,11.88
2023-04-07T08:54:36.028Z,33.20
2023-04-07T08:57:05.342Z,9.93
2023-04-07T08:59:35.208Z,5.45
2023-04-07T09:02:06.356Z,6.57
2023-04-07T09:04:35.816Z,4.43
2023-04-07T09:07:04.944Z,5.82
2023-04-07T09:09:35.246Z,4.00
2023-04-07T09:12:04.560Z,4.47
2023-04-07T09:14:33.683Z,3.88
2023-04-07T09:17:05.614Z,5.00
2023-04-07T09:19:35.074Z,5.40
2023-04-07T09:22:04.032Z,4.03
2023-04-07T09:24:32.948Z,4.85
2023-04-07T09:27:17.612Z,4.07
2023-04-07T09:29:48.321Z,8.63
2023-04-07T09:32:38.828Z,3.83
2023-04-07T09:35:08.564Z,2.90
2023-04-07T09:37:37.600Z,5.68
2023-04-07T09:40:07.730Z,10.00
2023-04-07T09:42:45.958Z,5.97
2023-04-07T09:45:34.069Z,4.20
2023-04-07T09:48:08.869Z,5.45
2023-04-07T09:50:41.355Z,2.95
2023-04-07T09:55:40.901Z,3.05
2023-04-07T09:58:14.701Z,11.50
2023-04-07T10:00:43.938Z,2.80
2023-04-07T10:03:13.581Z,3.90
2023-04-07T10:05:43.765Z,4.75
2023-04-07T10:08:12.965Z,4.70
2023-04-07T10:10:43.959Z,3.50
2023-04-07T10:13:14.413Z,2.15
2023-04-07T10:15:43.831Z,5.07
2023-04-07T10:18:13.780Z,2.58
2023-04-07T10:20:42.744Z,2.20
2023-04-07T10:23:18.342Z,3.28
2023-04-07T10:25:49.093Z,4.72
2023-04-07T10:28:22.659Z,4.07
2023-04-07T10:30:52.265Z,3.40
2023-04-07T10:33:51.417Z,2.95
2023-04-07T10:36:21.113Z,3.85
2023-04-07T10:39:21.286Z,3.78
2023-04-07T10:41:51.821Z,7.32
2023-04-07T10:44:51.593Z,4.30
2023-04-07T10:47:22.384Z,4.97
2023-04-07T10:50:20.381Z,4.65
2023-04-07T10:52:50.852Z,2.30
2023-04-07T10:55:37.819Z,4.55
2023-04-07T10:58:24.012Z,4.20
2023-04-07T11:01:19.488Z,3.67
2023-04-07T11:04:01.278Z,4.18
2023-04-07T11:06:31.644Z,2.80
2023-04-07T11:09:00.633Z,6.60
2023-04-07T11:11:41.783Z,5.45
2023-04-07T11:14:10.922Z,6.22
2023-04-07T11:16:42.016Z,4.93
2023-04-07T11:19:12.782Z,6.97
2023-04-07T11:21:41.704Z,4.25
2023-04-07T11:24:10.834Z,6.47
2023-04-07T11:26:41.790Z,9.43
2023-04-07T11:29:12.149Z,5.97
2023-04-07T11:31:41.699Z,3.42
2023-04-07T11:34:12.883Z,5.57
2023-04-07T11:36:42.835Z,3.88
2023-04-07T11:39:21.693Z,4.00
2023-04-07T11:41:51.782Z,5.50
2023-04-07T11:44:20.791Z,4.22
2023-04-07T11:46:56.689Z,8.20
2023-04-07T11:49:29.270Z,2.85
2023-04-07T11:54:41.668Z,5.10
2023-04-07T11:57:12.923Z,4.35
2023-04-07T11:59:42.790Z,6.13
2023-04-07T12:02:12.621Z,4.45
2023-04-07T12:04:58.541Z,3.58
2023-04-07T12:07:28.443Z,3.08
2023-04-07T12:09:58.026Z,6.55
2023-04-07T12:12:28.597Z,3.33
2023-04-07T12:14:58.386Z,4.53
2023-04-07T12:17:28.782Z,4.38
2023-04-07T12:19:59.664Z,1.75
2023-04-07T12:22:29.346Z,6.95
2023-04-07T12:24:58.379Z,4.00
2023-04-07T12:27:41.637Z,6.07
2023-04-07T12:30:13.499Z,4.03
2023-04-07T12:32:42.719Z,24.10
2023-04-07T12:35:13.172Z,7.03
2023-04-07T12:37:42.088Z,5.43
2023-04-07T12:40:11.723Z,6.47
2023-04-07T12:42:40.997Z,7.10
2023-04-07T12:45:10.583Z,3.90
2023-04-07T12:47:39.572Z,6.35
2023-04-07T12:50:09.013Z,7.72
2023-04-07T12:52:39.418Z,5.53
2023-04-07T12:55:08.988Z,5.80
2023-04-07T12:57:38.359Z,7.90
2023-04-07T13:00:08.579Z,7.53
2023-04-07T13:02:37.965Z,6.95
2023-04-07T13:05:07.372Z,4.50
2023-04-07T13:07:36.452Z,4.47
2023-04-07T13:10:08.644Z,3.70
2023-04-07T13:12:37.718Z,4.70
2023-04-07T13:15:07.533Z,9.05
2023-04-07T13:17:38.523Z,7.32
2023-04-07T13:20:08.843Z,6.60
2023-04-07T13:22:44.889Z,5.90
2023-04-07T13:25:19.356Z,4.97
2023-04-07T13:27:48.172Z,7.18
2023-04-07T13:30:17.539Z,5.30
2023-04-07T13:32:49.245Z,5.10
2023-04-07T13:35:18.223Z,4.53
2023-04-07T13:37:47.066Z,5.22
2023-04-07T13:40:16.091Z,5.70
2023-04-07T13:42:47.105Z,2.17
2023-04-07T13:45:16.100Z,5.35
2023-04-07T13:47:46.227Z,6.55
2023-04-07T13:50:15.864Z,4.50
2023-04-07T13:52:45.055Z,7.57
2023-04-07T13:55:13.950Z,7.53
2023-04-07T13:57:42.969Z,4.93
2023-04-07T14:00:14.666Z,3.70
2023-04-07T14:02:45.849Z,3.25
2023-04-07T14:05:15.640Z,4.40
2023-04-07T14:07:44.720Z,5.72
2023-04-07T14:10:13.865Z,6.18
2023-04-07T14:12:42.817Z,4.20
2023-04-07T14:15:13.380Z,3.08
2023-04-07T14:17:42.362Z,5.70
2023-04-07T14:20:12.063Z,4.88
2023-04-07T14:22:40.968Z,5.25
2023-04-07T14:25:10.068Z,5.75
2023-04-07T14:27:39.213Z,4.10
2023-04-07T14:30:09.434Z,6.68
2023-04-07T14:32:39.879Z,5.22
2023-04-07T14:35:09.619Z,3.47
2023-04-07T14:37:39.361Z,3.75
2023-04-07T14:40:09.781Z,7.65
2023-04-07T14:42:39.249Z,6.07
2023-04-07T14:45:11.020Z,6.65
2023-04-07T14:47:41.590Z,5.47
2023-04-07T14:50:11.234Z,3.28
2023-04-07T14:52:40.477Z,6.30
2023-04-07T14:55:12.097Z,4.15
2023-04-07T14:57:43.110Z,6.70
2023-04-07T15:00:13.220Z,3.95
2023-04-07T15:02:43.937Z,4.65
2023-04-07T15:05:13.162Z,4.03
2023-04-07T15:07:42.053Z,4.97
2023-04-07T15:10:11.456Z,3.08
2023-04-07T15:12:40.239Z,3.55
2023-04-07T15:15:09.960Z,3.58
2023-04-07T15:17:44.447Z,4.05
2023-04-07T15:20:15.558Z,3.65
2023-04-07T15:22:44.391Z,2.55
2023-04-07T15:25:16.680Z,4.25
2023-04-07T15:27:45.498Z,2.97
2023-04-07T15:30:14.654Z,2.95
2023-04-07T15:32:44.329Z,3.90
2023-04-07T15:35:13.218Z,3.97
2023-04-07T15:37:43.418Z,7.03
2023-04-07T15:40:13.154Z,3.42
2023-04-07T15:42:42.170Z,3.38
2023-04-07T15:45:12.484Z,6.75
2023-04-07T15:47:41.768Z,3.30
2023-04-07T15:50:11.443Z,6.05
2023-04-07T15:52:40.254Z,3.65
2023-04-07T15:55:11.178Z,4.80
2023-04-07T15:57:40.960Z,6.85
2023-04-07T16:00:10.826Z,1.98
2023-04-07T16:02:39.741Z,4.47
2023-04-07T16:05:09.302Z,3.70
2023-04-07T16:07:38.190Z,4.38
2023-04-07T16:10:08.584Z,4.13
2023-04-07T16:12:39.302Z,8.82
2023-04-07T16:15:11.100Z,6.60
2023-04-07T16:17:41.333Z,6.15
2023-04-07T16:20:14.389Z,3.25
2023-04-07T16:22:44.107Z,3.30
2023-04-07T16:25:13.316Z,3.92
2023-04-07T16:27:44.841Z,5.22
2023-04-07T16:30:15.196Z,3.85
2023-04-07T16:32:44.839Z,4.57
2023-04-07T16:35:15.342Z,4.70
2023-04-07T16:37:46.351Z,3.25
2023-04-07T16:40:15.643Z,2.85
2023-04-07T16:42:47.691Z,3.75
2023-04-07T16:45:16.808Z,6.18
2023-04-07T16:47:48.610Z,3.15
2023-04-07T16:50:19.870Z,7.18
2023-04-07T16:52:51.262Z,3.10
2023-04-07T16:55:22.493Z,3.10
2023-04-07T16:57:54.529Z,4.82
2023-04-07T17:00:23.788Z,8.60
2023-04-07T17:02:53.075Z,4.10
2023-04-07T17:05:22.591Z,6.68
2023-04-07T17:07:51.597Z,4.43
2023-04-07T17:10:20.813Z,3.35
2023-04-07T17:12:54.120Z,2.30
2023-04-07T17:15:24.740Z,5.88
2023-04-07T17:17:53.894Z,5.70
2023-04-07T17:20:23.688Z,3.90
2023-04-07T17:22:53.030Z,4.70
2023-04-07T17:25:21.922Z,3.38
2023-04-07T17:27:51.114Z,2.83
2023-04-07T17:30:20.400Z,5.32
2023-04-07T17:32:52.553Z,2.00
2023-04-07T17:35:22.874Z,2.75
2023-04-07T17:37:53.084Z,5.68
2023-04-07T17:40:22.149Z,4.93
2023-04-07T17:42:54.024Z,7.13
2023-04-07T17:45:23.542Z,7.70
2023-04-07T17:47:54.882Z,3.47
2023-04-07T17:50:24.192Z,6.93
2023-04-07T17:52:53.553Z,4.88
2023-04-07T17:55:22.837Z,5.15
2023-04-07T17:57:52.365Z,4.43
2023-04-07T18:00:22.531Z,7.07
2023-04-07T18:02:51.640Z,5.07
2023-04-07T18:05:22.619Z,5.28
2023-04-07T18:07:52.087Z,4.75
2023-04-07T18:10:20.983Z,4.30
2023-04-07T18:12:50.686Z,7.90
2023-04-07T18:15:19.818Z,5.25
2023-04-07T18:17:52.940Z,7.90
2023-04-07T18:20:23.475Z,4.68
2023-04-07T18:22:53.622Z,6.50
2023-04-07T18:25:23.311Z,2.72
2023-04-07T18:27:52.569Z,3.80
2023-04-07T18:30:22.605Z,4.57
2023-04-07T18:32:52.124Z,7.47
2023-04-07T18:35:22.861Z,7.35
2023-04-07T18:37:53.175Z,5.35
2023-04-07T18:40:24.946Z,3.53
2023-04-07T18:42:55.501Z,4.57
2023-04-07T18:45:24.508Z,5.88
2023-04-07T18:47:54.233Z,4.25
2023-04-07T18:50:24.948Z,2.40
2023-04-07T18:52:54.553Z,6.13
2023-04-07T18:55:23.530Z,3.72
2023-04-07T18:57:52.565Z,7.63
2023-04-07T19:00:21.477Z,4.70
2023-04-07T19:02:51.202Z,3.75
2023-04-07T19:05:23.062Z,3.67
2023-04-07T19:07:55.432Z,2.72
2023-04-07T19:10:24.867Z,7.57
2023-04-07T19:12:53.768Z,3.75
2023-04-07T19:15:22.641Z,8.57
2023-04-07T19:17:52.183Z,6.88
2023-04-07T19:20:21.472Z,3.65
2023-04-07T19:22:50.709Z,5.90
2023-04-07T19:25:21.292Z,6.07
2023-04-07T19:27:52.871Z,4.57
2023-04-07T19:30:22.097Z,4.35
2023-04-07T19:32:51.380Z,7.75
2023-04-07T19:35:21.345Z,5.25
2023-04-07T19:37:50.347Z,6.47
2023-04-07T19:40:21.080Z,3.90
2023-04-07T19:42:50.244Z,11.40
2023-04-07T19:45:19.452Z,6.70
2023-04-07T19:47:48.453Z,5.97
2023-04-07T19:50:17.619Z,4.35
2023-04-07T19:52:47.354Z,7.40
2023-04-07T19:55:16.770Z,4.93
2023-04-07T19:57:47.319Z,5.18
2023-04-07T20:00:16.891Z,6.47
2023-04-07T20:02:51.857Z,8.85
2023-04-07T20:05:21.367Z,8.60
2023-04-07T20:07:50.646Z,7.93
2023-04-07T20:10:19.658Z,7.47
2023-04-07T20:12:49.938Z,8.98
2023-04-07T20:15:21.202Z,9.98
2023-04-07T20:17:50.729Z,7.85
2023-04-07T20:20:23.780Z,18.73
2023-04-07T20:22:55.621Z,4.38
2023-04-07T20:25:25.404Z,5.10
2023-04-07T20:27:56.171Z,7.60
2023-04-07T20:30:26.049Z,7.32
2023-04-07T20:32:59.941Z,7.30
2023-04-07T20:35:29.908Z,16.15
2023-04-07T20:38:09.464Z,4.95
2023-04-07T20:40:38.816Z,5.22
2023-04-07T20:43:09.556Z,5.22
2023-04-07T20:45:39.061Z,9.32
2023-04-07T20:48:08.117Z,7.88
2023-04-07T20:50:38.432Z,7.25
2023-04-07T20:53:07.731Z,6.82
2023-04-07T20:55:36.818Z,6.30
2023-04-07T20:58:05.801Z,6.28
2023-04-07T21:00:36.728Z,5.03
2023-04-07T21:03:05.790Z,5.95
2023-04-07T21:05:34.913Z,6.90
2023-04-07T21:08:04.057Z,12.18
2023-04-07T21:10:34.677Z,8.25
2023-04-07T21:13:06.802Z,6.82
2023-04-07T21:15:37.839Z,9.50
2023-04-07T21:18:06.918Z,9.82
2023-04-07T21:20:37.639Z,10.45
2023-04-07T21:23:07.728Z,12.48
2023-04-07T21:25:38.349Z,13.57
2023-04-07T21:28:07.738Z,13.38
2023-04-07T21:30:41.951Z,6.22
2023-04-07T21:33:11.296Z,8.98
2023-04-07T21:35:40.554Z,16.83
2023-04-07T21:38:12.851Z,16.48
2023-04-07T21:40:41.740Z,7.70
2023-04-07T21:43:10.721Z,7.93
2023-04-07T21:45:43.561Z,14.23
2023-04-07T21:48:16.248Z,10.00
2023-04-07T21:50:46.683Z,8.02
2023-04-07T21:53:18.143Z,10.80
2023-04-07T21:55:49.392Z,8.38
2023-04-07T21:58:18.541Z,12.45
2023-04-07T22:00:50.248Z,9.00
2023-04-07T22:03:19.592Z,17.42
2023-04-07T22:05:48.774Z,10.13
2023-04-07T22:08:18.036Z,15.38
2023-04-07T22:10:46.968Z,11.38
2023-04-07T22:13:16.876Z,11.52
2023-04-07T22:15:46.166Z,12.90
2023-04-07T22:18:17.107Z,9.88
2023-04-07T22:20:46.404Z,10.85
2023-04-07T22:23:17.427Z,9.38
2023-04-07T22:25:46.979Z,8.07
2023-04-07T22:28:16.120Z,9.40
2023-04-07T22:30:45.171Z,12.40
2023-04-07T22:33:14.205Z,8.68
2023-04-07T22:35:44.675Z,7.95
2023-04-07T22:38:13.773Z,8.30
2023-04-07T22:40:43.674Z,12.85
2023-04-07T22:43:12.994Z,10.80
2023-04-07T22:45:42.053Z,10.43
2023-04-07T22:48:11.033Z,15.77
2023-04-07T22:50:39.932Z,12.75
2023-04-07T22:53:10.083Z,9.63
2023-04-07T22:55:38.895Z,11.05
2023-04-07T22:58:07.808Z,13.90
2023-04-07T23:00:36.775Z,11.95
2023-04-07T23:03:06.117Z,10.85
2023-04-07T23:05:35.149Z,9.60
2023-04-07T23:08:04.034Z,12.38
2023-04-07T23:10:36.274Z,12.57
2023-04-07T23:13:05.198Z,12.43
2023-04-07T23:15:35.846Z,7.53
2023-04-07T23:18:04.874Z,13.43
2023-04-07T23:20:34.140Z,18.02
2023-04-07T23:23:03.097Z,15.95
2023-04-07T23:25:34.825Z,11.57
2023-04-07T23:28:03.731Z,13.65
2023-04-07T23:30:32.896Z,10.73
2023-04-07T23:33:01.813Z,13.95
2023-04-07T23:35:33.112Z,12.45
2023-04-07T23:38:02.491Z,10.65
2023-04-07T23:40:31.580Z,13.77
2023-04-07T23:43:02.093Z,9.52
2023-04-07T23:45:31.210Z,10.50
2023-04-07T23:48:01.570Z,14.45
2023-04-07T23:50:30.990Z,11.98
2023-04-07T23:52:59.801Z,10.60
2023-04-07T23:55:28.565Z,12.50
2023-04-07T23:57:57.573Z,12.52
